Weather History for Harrisburg, IL

Change the Weather History Date:

Tuesday, March 5, 2013

  Actual Average (KMWA) Record (KMWA)
Temperature  
Mean Temperature 38 °F -  
Max Temperature 44 °F 51 °F 79 °F (1983)
Min Temperature 32 °F 30 °F -8 °F (1978)
Degree Days  
Heating Degree Days 27    
Moisture  
Dew Point 32 °F    
Average Humidity 84    
Maximum Humidity 100    
Minimum Humidity 65    
Precipitation  
Precipitation 0.10 in - - ()
Sea Level Pressure  
Sea Level Pressure 29.88 in    
Wind  
Wind Speed 11 mph (WNW)    
Max Wind Speed 26 mph    
Max Gust Speed 38 mph    
Visibility 9 miles    
Events Rain , Snow    
Averages and records for this station are not official NWS values.
T = Trace of Precipitation, MM = Missing Value Source: NWS Daily Summary

Daily Weather History Graph

Daily Weather History Graph

Search for Another Location

Airport:

Trip Planner

Search our weather history database for the weather conditions in past years. The results will help you decide how hot, cold, wet, or windy it might be!

Date:

Astronomy

Mar. 05, 2013 Rise Set
Actual Time 6:19 AM CST 5:52 PM CST
Civil Twilight 5:53 AM CST 6:18 PM CST
Nautical Twilight 5:23 AM CST 6:48 PM CST
Astronomical Twilight 4:52 AM CST 7:19 PM CST
Moon 1:27 AM CST (3/5) 11:35 AM CST (3/5)
Length of Visible Light 12h 24m
Length of Day
11h 32m
Last Quarter, 40% of the Moon is Illuminated
Mar 5
Last Quarter
Mar 11
New
Mar 19
First Quarter
Mar 27
Full
Apr 2
Last Quarter

Hourly Weather History & Observations

Time (CST) Temp. Windchill Dew Point Humidity Pressure Visibility Wind Dir Wind Speed Gust Speed Precip Events Conditions
12:15 AM 42.8 °F 38.6 °F 37.4 °F 81% 29.80 in 10.0 mi East 6.9 mph - 0.01 in   Overcast
12:35 AM 42.8 °F 38.6 °F 35.6 °F 76% 29.79 in 10.0 mi East 6.9 mph - 0.01 in   Overcast
12:55 AM 42.8 °F 38.6 °F 35.6 °F 76% 29.79 in 10.0 mi East 6.9 mph - 0.01 in Rain Light Rain
1:15 AM 42.8 °F 39.3 °F 37.4 °F 81% 29.79 in 10.0 mi East 5.8 mph - N/A   Overcast
1:35 AM 42.8 °F 38.0 °F 37.4 °F 81% 29.78 in 10.0 mi East 8.1 mph - N/A   Overcast
1:55 AM 42.8 °F 39.3 °F 37.4 °F 81% 29.78 in 10.0 mi East 5.8 mph - N/A   Overcast
2:15 AM 42.8 °F 38.6 °F 37.4 °F 81% 29.77 in 10.0 mi ESE 6.9 mph - N/A   Overcast
2:35 AM 44.6 °F 41.4 °F 37.4 °F 76% 29.77 in 10.0 mi ESE 5.8 mph - N/A   Overcast
2:55 AM 42.8 °F 41.1 °F 37.4 °F 81% 29.77 in 10.0 mi ESE 3.5 mph - N/A   Scattered Clouds
3:15 AM 41.0 °F - 35.6 °F 81% 29.76 in 10.0 mi Calm Calm - N/A   Clear
3:35 AM 41.0 °F 39.0 °F 35.6 °F 81% 29.76 in 10.0 mi East 3.5 mph - N/A   Scattered Clouds
3:55 AM 41.0 °F - 35.6 °F 81% 29.76 in 10.0 mi Calm Calm - N/A   Clear
4:15 AM 37.4 °F - 35.6 °F 93% 29.76 in 10.0 mi Calm Calm - N/A   Clear
4:35 AM 37.4 °F 34.9 °F 33.8 °F 87% 29.77 in 10.0 mi NNW 3.5 mph - N/A   Clear
4:55 AM 35.6 °F 31.7 °F 33.8 °F 93% 29.79 in 10.0 mi WNW 4.6 mph - N/A   Clear
5:15 AM 37.4 °F 34.9 °F 35.6 °F 93% 29.80 in 10.0 mi NW 3.5 mph - N/A   Mostly Cloudy
5:35 AM 37.4 °F - 37.4 °F 100% 29.80 in 10.0 mi Calm Calm - N/A   Overcast
5:55 AM 39.2 °F - 37.4 °F 93% 29.78 in 10.0 mi Calm Calm - N/A   Overcast
6:15 AM 39.2 °F - 37.4 °F 93% 29.78 in 10.0 mi Calm Calm - N/A   Overcast
6:35 AM 41.0 °F - 37.4 °F 87% 29.77 in 10.0 mi Calm Calm - N/A   Overcast
6:55 AM 39.2 °F - 37.4 °F 93% 29.77 in 10.0 mi Calm Calm - N/A   Scattered Clouds
7:15 AM 39.2 °F - 37.4 °F 93% 29.77 in 10.0 mi Calm Calm - N/A   Clear
7:35 AM 39.2 °F - 37.4 °F 93% 29.78 in 10.0 mi Calm Calm - N/A   Clear
7:55 AM 41.0 °F 37.1 °F 39.2 °F 93% 29.79 in 10.0 mi West 5.8 mph - N/A   Clear
8:15 AM 41.0 °F 35.2 °F 39.2 °F 93% 29.79 in 10.0 mi WNW 9.2 mph - N/A   Clear
8:35 AM 42.8 °F 38.0 °F 39.2 °F 87% 29.79 in 10.0 mi WNW 8.1 mph - N/A   Scattered Clouds
8:55 AM 42.8 °F 36.6 °F 37.4 °F 81% 29.79 in 10.0 mi WNW 11.5 mph 16.1 mph N/A   Mostly Cloudy
9:15 AM 42.8 °F 34.8 °F 35.6 °F 76% 29.80 in 10.0 mi WNW 17.3 mph 23.0 mph N/A   Light Drizzle
9:35 AM 41.0 °F 32.8 °F 33.8 °F 76% 29.80 in 10.0 mi WNW 16.1 mph - N/A   Overcast
9:55 AM 41.0 °F 32.2 °F 33.8 °F 76% 29.81 in 10.0 mi WNW 18.4 mph 27.6 mph N/A   Overcast
10:15 AM 39.2 °F 29.0 °F 33.8 °F 81% 29.82 in 5.0 mi WNW 21.9 mph 32.2 mph N/A Rain Light Rain
10:35 AM 37.4 °F 26.9 °F 33.8 °F 87% 29.83 in 7.0 mi WNW 20.7 mph 29.9 mph N/A Rain Light Rain
10:55 AM 35.6 °F 23.7 °F 33.8 °F 93% 29.83 in 7.0 mi WNW 24.2 mph 29.9 mph N/A Rain Light Rain
11:15 AM 35.6 °F 25.2 °F 32.0 °F 87% 29.83 in 4.0 mi NW 18.4 mph 29.9 mph N/A Snow Light Snow
11:35 AM 33.8 °F 22.8 °F 32.0 °F 93% 29.83 in 1.0 mi WNW 18.4 mph 25.3 mph 0.02 in Snow Light Snow
11:55 AM 32.0 °F 22.1 °F 32.0 °F 100% 29.85 in 0.5 mi WNW 13.8 mph 23.0 mph 0.03 in Snow Snow
12:15 PM 32.0 °F 21.2 °F 32.0 °F 100% 29.85 in 0.5 mi WNW 16.1 mph - 0.01 in Snow Snow
12:35 PM 32.0 °F 21.2 °F 32.0 °F 100% 29.85 in 1.8 mi WNW 16.1 mph 23.0 mph 0.03 in Snow Light Snow
12:55 PM 32.0 °F 20.5 °F 32.0 °F 100% 29.86 in 1.2 mi WNW 18.4 mph 27.6 mph 0.05 in Snow Light Snow
1:15 PM 32.0 °F 20.8 °F 32.0 °F 100% 29.86 in 4.0 mi WNW 17.3 mph 24.2 mph 0.01 in Snow Light Snow
1:35 PM 33.8 °F 23.2 °F 32.0 °F 93% 29.87 in 4.0 mi WNW 17.3 mph - 0.01 in Snow Light Snow
1:55 PM 33.8 °F 22.2 °F 32.0 °F 93% 29.87 in 10.0 mi WNW 20.7 mph 27.6 mph 0.01 in   Overcast
2:15 PM 33.8 °F 22.2 °F 32.0 °F 93% 29.88 in 7.0 mi WNW 20.7 mph 31.1 mph N/A   Overcast
2:35 PM 35.6 °F 24.2 °F 32.0 °F 87% 29.88 in 10.0 mi WNW 21.9 mph 26.5 mph N/A   Overcast
2:55 PM 33.8 °F 21.3 °F 32.0 °F 93% 29.90 in 7.0 mi WNW 24.2 mph 33.4 mph N/A   Overcast
3:15 PM 33.8 °F 20.8 °F 32.0 °F 93% 29.91 in 10.0 mi WNW 26.5 mph 34.5 mph N/A   Overcast
3:35 PM 35.6 °F 25.2 °F 30.2 °F 81% 29.92 in 10.0 mi WNW 18.4 mph 33.4 mph N/A   Overcast
3:55 PM 33.8 °F 21.3 °F 28.4 °F 81% 29.93 in 10.0 mi WNW 24.2 mph 35.7 mph N/A   Overcast
4:15 PM 35.6 °F 24.8 °F 28.4 °F 75% 29.93 in 10.0 mi WNW 19.6 mph 28.8 mph N/A   Mostly Cloudy
4:35 PM 35.6 °F 25.5 °F 28.4 °F 75% 29.94 in 10.0 mi WNW 17.3 mph 27.6 mph N/A   Mostly Cloudy
4:55 PM 35.6 °F 24.2 °F 26.6 °F 70% 29.95 in 10.0 mi WNW 21.9 mph 31.1 mph N/A   Overcast
5:15 PM 33.8 °F 23.2 °F 24.8 °F 70% 29.97 in 10.0 mi WNW 17.3 mph 32.2 mph N/A   Overcast
5:35 PM 33.8 °F 22.2 °F 24.8 °F 70% 29.98 in 10.0 mi NW 20.7 mph 35.7 mph N/A   Overcast
5:55 PM 33.8 °F 21.3 °F 23.0 °F 65% 29.99 in 10.0 mi WNW 24.2 mph 35.7 mph N/A   Overcast
6:15 PM 32.0 °F 19.8 °F 23.0 °F 69% 30.00 in 10.0 mi WNW 20.7 mph 38.0 mph N/A   Overcast
6:35 PM 32.0 °F 18.9 °F 23.0 °F 69% 30.01 in 10.0 mi WNW 24.2 mph 28.8 mph N/A   Overcast
6:55 PM 32.0 °F 20.8 °F 23.0 °F 69% 30.00 in 10.0 mi WNW 17.3 mph 25.3 mph N/A   Overcast
7:15 PM 32.0 °F 19.5 °F 24.8 °F 75% 30.01 in 10.0 mi West 21.9 mph 26.5 mph N/A   Overcast
7:35 PM 32.0 °F 20.8 °F 26.6 °F 80% 30.01 in 10.0 mi WNW 17.3 mph 26.5 mph N/A Snow Light Snow
7:55 PM 32.0 °F 19.8 °F 26.6 °F 80% 30.01 in 10.0 mi West 20.7 mph 27.6 mph N/A Snow Light Snow
8:15 PM 32.0 °F 19.5 °F 26.6 °F 80% 30.00 in 10.0 mi West 21.9 mph 28.8 mph N/A   Overcast
8:35 PM 32.0 °F 19.5 °F 26.6 °F 80% 30.01 in 10.0 mi West 21.9 mph 29.9 mph N/A   Overcast
8:55 PM 32.0 °F 20.5 °F 28.4 °F 87% 30.01 in 7.0 mi West 18.4 mph 25.3 mph N/A Snow Light Snow
9:15 PM 32.0 °F 19.8 °F 28.4 °F 87% 30.01 in 5.0 mi West 20.7 mph - N/A Snow Light Snow
9:35 PM 32.0 °F 20.8 °F 28.4 °F 87% 30.01 in 10.0 mi WNW 17.3 mph 27.6 mph N/A   Overcast
9:55 PM 32.0 °F 19.5 °F 26.6 °F 80% 30.01 in 10.0 mi WNW 21.9 mph 28.8 mph N/A   Overcast
10:15 PM 32.0 °F 19.8 °F 26.6 °F 80% 30.01 in 10.0 mi WNW 20.7 mph 29.9 mph N/A   Overcast
10:35 PM 32.0 °F 19.2 °F 26.6 °F 80% 30.02 in 7.0 mi WNW 23.0 mph 27.6 mph N/A Snow Light Snow
10:55 PM 32.0 °F 20.5 °F 26.6 °F 80% 30.02 in 10.0 mi WNW 18.4 mph 26.5 mph N/A   Overcast
11:15 PM 32.0 °F 19.5 °F 26.6 °F 80% 30.02 in 10.0 mi WNW 21.9 mph 27.6 mph N/A   Overcast
11:35 PM 32.0 °F 20.1 °F 28.4 °F 87% 30.03 in 7.0 mi WNW 19.6 mph 27.6 mph N/A Snow Light Snow
11:55 PM 32.0 °F 19.5 °F 26.6 °F 80% 30.03 in 10.0 mi WNW 21.9 mph 31.1 mph N/A   Overcast